createdAt,value
2023-05-01T00:02:41.166Z,9.10
2023-05-01T00:07:48.453Z,9.20
2023-05-01T00:12:55.449Z,9.10
2023-05-01T00:18:02.292Z,9.00
2023-05-01T00:23:09.183Z,9.00
2023-05-01T00:28:15.938Z,9.00
2023-05-01T00:33:23.479Z,8.90
2023-05-01T00:38:30.717Z,8.50
2023-05-01T00:43:38.312Z,8.70
2023-05-01T00:48:45.124Z,8.60
2023-05-01T00:53:53.085Z,8.40
2023-05-01T00:58:59.871Z,8.30
2023-05-01T01:04:07.135Z,8.20
2023-05-01T01:09:27.044Z,8.40
2023-05-01T01:15:01.994Z,8.30
2023-05-01T01:20:41.546Z,8.40
2023-05-01T01:26:21.253Z,8.40
2023-05-01T01:31:51.123Z,8.20
2023-05-01T01:37:05.622Z,8.30
2023-05-01T01:42:17.888Z,8.10
2023-05-01T01:47:28.832Z,8.00
2023-05-01T01:52:39.010Z,8.00
2023-05-01T01:57:48.170Z,8.10
2023-05-01T02:02:55.921Z,8.10
2023-05-01T02:08:05.531Z,7.90
2023-05-01T02:13:15.002Z,7.90
2023-05-01T02:18:23.715Z,8.10
2023-05-01T02:23:32.197Z,8.10
2023-05-01T02:28:41.710Z,7.80
2023-05-01T02:33:48.417Z,7.80
2023-05-01T02:38:55.661Z,8.00
2023-05-01T02:44:05.258Z,7.90
2023-05-01T02:49:12.548Z,7.60
2023-05-01T02:54:19.467Z,7.70
2023-05-01T02:59:26.597Z,7.70
2023-05-01T03:04:33.333Z,7.70
2023-05-01T03:09:41.172Z,7.60
2023-05-01T03:14:48.065Z,7.80
2023-05-01T03:19:55.239Z,7.60
2023-05-01T03:25:02.489Z,7.60
2023-05-01T03:30:10.976Z,7.40
2023-05-01T03:35:17.689Z,7.60
2023-05-01T03:40:24.650Z,7.70
2023-05-01T03:45:31.916Z,7.80
2023-05-01T03:50:38.645Z,7.90
2023-05-01T03:55:45.764Z,7.80
2023-05-01T04:00:52.522Z,7.90
2023-05-01T04:06:01.616Z,8.10
2023-05-01T04:11:08.275Z,8.00
2023-05-01T04:16:15.052Z,8.10
2023-05-01T04:21:22.730Z,8.30
2023-05-01T04:26:29.672Z,8.40
2023-05-01T04:31:36.646Z,8.50
2023-05-01T04:36:43.327Z,8.40
2023-05-01T04:41:49.990Z,8.50
2023-05-01T04:46:56.897Z,8.60
2023-05-01T04:52:03.748Z,8.70
2023-05-01T04:57:10.465Z,8.90
2023-05-01T05:02:17.100Z,8.80
2023-05-01T05:07:24.219Z,8.60
2023-05-01T05:12:32.541Z,8.60
2023-05-01T05:17:39.294Z,8.90
2023-05-01T05:22:45.975Z,9.20
2023-05-01T05:27:52.833Z,9.30
2023-05-01T05:33:00.370Z,9.40
2023-05-01T05:38:07.224Z,9.40
2023-05-01T05:43:13.957Z,9.50
2023-05-01T05:48:20.808Z,9.60
2023-05-01T05:53:27.494Z,9.80
2023-05-01T05:58:35.557Z,9.80
2023-05-01T06:03:43.385Z,10.00
2023-05-01T06:08:50.263Z,9.90
2023-05-01T06:13:58.517Z,10.00
2023-05-01T06:19:08.622Z,10.20
2023-05-01T06:24:16.466Z,10.10
2023-05-01T06:29:23.439Z,10.10
2023-05-01T06:34:31.251Z,10.20
2023-05-01T06:39:37.988Z,10.30
2023-05-01T06:44:48.110Z,10.50
2023-05-01T06:49:55.552Z,10.80
2023-05-01T06:55:05.174Z,10.80
2023-05-01T07:00:13.308Z,11.00
2023-05-01T07:05:20.695Z,11.20
2023-05-01T07:10:27.512Z,11.50
2023-05-01T07:15:34.915Z,11.20
2023-05-01T07:20:42.251Z,11.30
2023-05-01T07:25:49.256Z,11.40
2023-05-01T07:30:56.177Z,11.40
2023-05-01T07:36:03.789Z,11.60
2023-05-01T07:41:10.543Z,11.60
2023-05-01T07:46:17.518Z,11.90
2023-05-01T07:51:24.694Z,12.30
2023-05-01T07:56:31.845Z,12.90
2023-05-01T08:01:40.822Z,12.90
2023-05-01T08:06:47.771Z,13.60
2023-05-01T08:11:54.971Z,13.30
2023-05-01T08:17:01.775Z,14.40
2023-05-01T08:22:09.034Z,14.40
2023-05-01T08:27:16.697Z,15.20
2023-05-01T08:32:24.793Z,15.10
2023-05-01T08:37:31.940Z,14.50
2023-05-01T08:42:39.768Z,15.20
2023-05-01T08:47:47.544Z,14.80
2023-05-01T08:52:56.868Z,15.60
2023-05-01T08:58:05.894Z,15.10
2023-05-01T09:03:15.636Z,15.30
2023-05-01T09:08:22.844Z,15.10
2023-05-01T09:13:30.267Z,14.50
2023-05-01T09:18:38.816Z,14.40
2023-05-01T09:23:45.712Z,15.00
2023-05-01T09:28:56.371Z,15.50
2023-05-01T09:34:06.346Z,15.10
2023-05-01T09:39:16.150Z,14.00
2023-05-01T09:44:22.985Z,14.30
2023-05-01T09:49:48.715Z,13.60
2023-05-01T09:55:17.956Z,14.20
2023-05-01T10:00:25.513Z,15.30
2023-05-01T10:05:36.721Z,15.70
2023-05-01T10:10:44.212Z,16.60
2023-05-01T10:15:51.472Z,16.80
2023-05-01T10:20:58.586Z,17.70
2023-05-01T10:26:07.106Z,16.40
2023-05-01T10:31:15.574Z,17.40
2023-05-01T10:36:42.017Z,16.60
2023-05-01T10:42:12.292Z,16.50
2023-05-01T10:47:34.562Z,16.80
2023-05-01T10:53:18.241Z,16.60
2023-05-01T10:58:46.717Z,16.30
2023-05-01T11:03:54.092Z,15.50
2023-05-01T11:09:02.285Z,15.00
2023-05-01T11:14:11.406Z,14.70
2023-05-01T11:19:29.520Z,14.60
2023-05-01T11:24:37.530Z,14.50
2023-05-01T11:29:48.818Z,14.90
2023-05-01T11:34:56.355Z,15.70
2023-05-01T11:40:05.003Z,16.60
2023-05-01T11:45:14.172Z,15.60
2023-05-01T11:50:22.402Z,15.40
2023-05-01T11:55:37.672Z,16.20
2023-05-01T12:00:45.796Z,16.00
2023-05-01T12:05:54.315Z,16.60
2023-05-01T12:11:01.190Z,16.30
2023-05-01T12:16:08.057Z,16.10
2023-05-01T12:21:21.905Z,15.80
2023-05-01T12:26:27.717Z,15.60
2023-05-01T12:31:35.022Z,15.60
2023-05-01T12:36:41.849Z,15.50
2023-05-01T12:41:51.239Z,15.10
2023-05-01T12:47:08.176Z,15.00
2023-05-01T12:52:15.442Z,15.10
2023-05-01T12:57:22.444Z,15.10
2023-05-01T13:02:34.643Z,15.40
2023-05-01T13:07:42.090Z,15.80
2023-05-01T13:12:48.944Z,15.30
2023-05-01T13:17:55.945Z,15.20
2023-05-01T13:23:06.293Z,14.90
2023-05-01T13:28:16.488Z,15.00
2023-05-01T13:33:23.319Z,14.70
2023-05-01T13:38:32.333Z,14.80
2023-05-01T13:43:39.937Z,14.80
2023-05-01T13:48:48.570Z,14.90
2023-05-01T13:53:56.980Z,14.80
2023-05-01T13:59:05.145Z,14.90
2023-05-01T14:04:18.376Z,15.20
2023-05-01T14:09:25.405Z,15.40
2023-05-01T14:14:32.656Z,15.40
2023-05-01T14:19:41.804Z,15.20
2023-05-01T14:24:48.643Z,15.50
2023-05-01T14:29:57.515Z,15.30
2023-05-01T14:35:07.365Z,15.40
2023-05-01T14:40:19.150Z,15.20
2023-05-01T14:45:26.101Z,15.20
2023-05-01T14:50:33.063Z,15.10
2023-05-01T14:55:40.575Z,15.10
2023-05-01T15:00:47.428Z,15.10
2023-05-01T15:05:54.630Z,14.90
2023-05-01T15:11:01.643Z,14.60
2023-05-01T15:16:08.694Z,14.60
2023-05-01T15:21:16.246Z,14.40
2023-05-01T15:26:22.996Z,14.50
2023-05-01T15:31:31.815Z,14.50
2023-05-01T15:36:38.703Z,14.60
2023-05-01T15:41:45.736Z,14.70
2023-05-01T15:46:53.604Z,14.60
2023-05-01T15:52:02.250Z,14.50
2023-05-01T15:57:11.137Z,14.50
2023-05-01T16:02:18.606Z,14.70
2023-05-01T16:07:27.129Z,14.80
2023-05-01T16:12:33.994Z,14.60
2023-05-01T16:17:47.048Z,14.60
2023-05-01T16:22:53.971Z,14.50
2023-05-01T16:28:01.041Z,14.30
2023-05-01T16:33:14.408Z,14.30
2023-05-01T16:38:22.828Z,14.40
2023-05-01T16:43:30.920Z,14.40
2023-05-01T16:48:38.337Z,14.20
2023-05-01T16:53:45.101Z,14.30
2023-05-01T16:58:54.988Z,14.20
2023-05-01T17:04:01.955Z,14.10
2023-05-01T17:09:09.171Z,14.00
2023-05-01T17:14:15.937Z,13.90
2023-05-01T17:19:22.727Z,13.80
2023-05-01T17:24:29.944Z,13.60
2023-05-01T17:29:37.277Z,13.40
2023-05-01T17:34:45.257Z,13.20
2023-05-01T17:39:52.587Z,13.00
2023-05-01T17:44:59.513Z,12.90
2023-05-01T17:50:08.747Z,12.90
2023-05-01T17:55:18.001Z,12.70
2023-05-01T18:00:24.573Z,12.60
2023-05-01T18:05:31.413Z,12.60
2023-05-01T18:10:38.219Z,12.50
2023-05-01T18:15:45.616Z,12.60
2023-05-01T18:20:52.442Z,12.70
2023-05-01T18:26:00.008Z,12.70
2023-05-01T18:31:06.878Z,12.50
2023-05-01T18:36:13.793Z,12.40
2023-05-01T18:41:21.974Z,12.50
2023-05-01T18:46:30.456Z,12.50
2023-05-01T18:51:37.678Z,12.40
2023-05-01T18:56:44.833Z,12.50
2023-05-01T19:01:52.156Z,12.40
2023-05-01T19:07:00.201Z,12.50
2023-05-01T19:12:10.369Z,12.40
2023-05-01T19:17:17.493Z,12.50
2023-05-01T19:22:24.403Z,12.60
2023-05-01T19:27:31.611Z,12.60
2023-05-01T19:32:38.906Z,12.50
2023-05-01T19:37:47.289Z,12.40
2023-05-01T19:42:55.548Z,12.40
2023-05-01T19:48:02.572Z,12.40
2023-05-01T19:53:09.299Z,12.30
2023-05-01T19:58:17.108Z,12.40
2023-05-01T20:03:24.188Z,12.50
2023-05-01T20:08:31.272Z,12.40
2023-05-01T20:13:38.206Z,12.40
2023-05-01T20:18:45.914Z,12.30
2023-05-01T20:23:54.375Z,12.30
2023-05-01T20:29:01.750Z,12.30
2023-05-01T20:34:08.723Z,12.20
2023-05-01T20:39:15.550Z,12.10
2023-05-01T20:44:22.368Z,12.10
2023-05-01T20:49:30.966Z,12.10
2023-05-01T20:54:37.757Z,12.00
2023-05-01T20:59:48.649Z,12.00
2023-05-01T21:04:56.661Z,12.10
2023-05-01T21:10:07.151Z,12.10
2023-05-01T21:15:14.235Z,12.20
2023-05-01T21:20:34.494Z,12.30
2023-05-01T21:25:41.486Z,12.20
2023-05-01T21:30:50.449Z,12.30
2023-05-01T21:35:57.699Z,12.20
2023-05-01T21:41:04.642Z,12.10
2023-05-01T21:46:15.858Z,12.10
2023-05-01T21:51:29.888Z,12.10
2023-05-01T21:56:35.807Z,12.10
2023-05-01T22:01:42.676Z,12.10
2023-05-01T22:06:50.282Z,12.20
2023-05-01T22:11:59.080Z,12.20
2023-05-01T22:17:06.130Z,12.20
2023-05-01T22:22:13.086Z,12.20
2023-05-01T22:27:20.470Z,12.00
2023-05-01T22:32:28.579Z,11.90
2023-05-01T22:37:35.454Z,12.00
2023-05-01T22:42:42.526Z,12.00
2023-05-01T22:47:49.541Z,11.80
2023-05-01T22:52:56.566Z,11.80
2023-05-01T22:58:03.466Z,11.80
2023-05-01T23:03:10.470Z,11.80
2023-05-01T23:08:17.635Z,11.80
2023-05-01T23:13:24.697Z,11.70
2023-05-01T23:18:36.782Z,11.70
2023-05-01T23:23:46.401Z,11.70
2023-05-01T23:28:53.980Z,11.70
2023-05-01T23:34:04.323Z,11.60
2023-05-01T23:39:11.743Z,11.70
2023-05-01T23:44:18.538Z,11.60
2023-05-01T23:49:25.532Z,11.60
2023-05-01T23:54:32.498Z,11.60
2023-05-01T23:59:39.800Z,11.60
